sensor_id;sensor_type;location;lat;lon;timestamp;temperature;humidity
76785;SHT30;66893;44.316;0.092;2023-05-10T00:02:01;22.25;52.95
76785;SHT30;66893;44.316;0.092;2023-05-10T00:04:27;22.25;52.90
76785;SHT30;66893;44.316;0.092;2023-05-10T00:06:53;22.25;52.96
76785;SHT30;66893;44.316;0.092;2023-05-10T00:09:19;22.22;53.07
76785;SHT30;66893;44.316;0.092;2023-05-10T00:11:44;22.20;53.04
76785;SHT30;66893;44.316;0.092;2023-05-10T00:14:10;22.19;53.10
76785;SHT30;66893;44.316;0.092;2023-05-10T00:16:36;22.17;53.12
76785;SHT30;66893;44.316;0.092;2023-05-10T00:19:01;22.16;53.12
76785;SHT30;66893;44.316;0.092;2023-05-10T00:21:27;22.16;53.20
76785;SHT30;66893;44.316;0.092;2023-05-10T00:23:53;22.13;53.22
76785;SHT30;66893;44.316;0.092;2023-05-10T00:26:19;22.12;53.22
76785;SHT30;66893;44.316;0.092;2023-05-10T00:28:45;22.12;53.24
76785;SHT30;66893;44.316;0.092;2023-05-10T00:31:10;22.12;53.23
76785;SHT30;66893;44.316;0.092;2023-05-10T00:33:35;22.08;53.23
76785;SHT30;66893;44.316;0.092;2023-05-10T00:36:01;22.10;53.24
76785;SHT30;66893;44.316;0.092;2023-05-10T00:45:32;22.04;53.26
76785;SHT30;66893;44.316;0.092;2023-05-10T00:47:59;22.01;53.26
76785;SHT30;66893;44.316;0.092;2023-05-10T00:50:26;22.02;53.35
76785;SHT30;66893;44.316;0.092;2023-05-10T00:52:51;21.99;53.35
76785;SHT30;66893;44.316;0.092;2023-05-10T00:55:18;21.98;53.39
76785;SHT30;66893;44.316;0.092;2023-05-10T00:57:43;21.98;53.38
76785;SHT30;66893;44.316;0.092;2023-05-10T01:00:09;21.95;53.36
76785;SHT30;66893;44.316;0.092;2023-05-10T01:02:36;21.94;53.41
76785;SHT30;66893;44.316;0.092;2023-05-10T01:05:02;21.92;53.38
76785;SHT30;66893;44.316;0.092;2023-05-10T01:07:31;21.91;53.38
76785;SHT30;66893;44.316;0.092;2023-05-10T01:09:57;21.88;53.36
76785;SHT30;66893;44.316;0.092;2023-05-10T01:12:22;21.88;53.38
76785;SHT30;66893;44.316;0.092;2023-05-10T01:14:48;21.89;53.41
76785;SHT30;66893;44.316;0.092;2023-05-10T01:17:14;21.85;53.35
76785;SHT30;66893;44.316;0.092;2023-05-10T01:19:41;21.82;53.40
76785;SHT30;66893;44.316;0.092;2023-05-10T01:30:19;21.77;53.35
76785;SHT30;66893;44.316;0.092;2023-05-10T01:35:36;21.70;53.36
76785;SHT30;66893;44.316;0.092;2023-05-10T01:40:56;21.67;53.36
76785;SHT30;66893;44.316;0.092;2023-05-10T01:43:34;21.64;53.38
76785;SHT30;66893;44.316;0.092;2023-05-10T01:46:10;21.62;53.37
76785;SHT30;66893;44.316;0.092;2023-05-10T01:48:47;21.64;53.37
76785;SHT30;66893;44.316;0.092;2023-05-10T01:51:16;21.58;53.42
76785;SHT30;66893;44.316;0.092;2023-05-10T01:53:44;21.57;53.40
76785;SHT30;66893;44.316;0.092;2023-05-10T01:56:12;21.57;53.41
76785;SHT30;66893;44.316;0.092;2023-05-10T01:58:40;21.53;53.43
76785;SHT30;66893;44.316;0.092;2023-05-10T02:01:09;21.51;53.38
76785;SHT30;66893;44.316;0.092;2023-05-10T02:03:36;21.49;53.39
76785;SHT30;66893;44.316;0.092;2023-05-10T02:06:03;21.49;53.44
76785;SHT30;66893;44.316;0.092;2023-05-10T02:08:30;21.49;53.40
76785;SHT30;66893;44.316;0.092;2023-05-10T02:10:58;21.47;53.45
76785;SHT30;66893;44.316;0.092;2023-05-10T02:13:25;21.42;53.39
76785;SHT30;66893;44.316;0.092;2023-05-10T02:15:53;21.44;53.45
76785;SHT30;66893;44.316;0.092;2023-05-10T02:18:19;21.40;53.45
76785;SHT30;66893;44.316;0.092;2023-05-10T02:20:47;21.42;53.42
76785;SHT30;66893;44.316;0.092;2023-05-10T02:23:13;21.39;53.41
76785;SHT30;66893;44.316;0.092;2023-05-10T02:25:40;21.37;53.43
76785;SHT30;66893;44.316;0.092;2023-05-10T02:28:07;21.36;53.41
76785;SHT30;66893;44.316;0.092;2023-05-10T02:30:34;21.32;53.42
76785;SHT30;66893;44.316;0.092;2023-05-10T02:33:01;21.32;53.42
76785;SHT30;66893;44.316;0.092;2023-05-10T02:35:28;21.29;53.41
76785;SHT30;66893;44.316;0.092;2023-05-10T02:37:54;21.26;53.44
76785;SHT30;66893;44.316;0.092;2023-05-10T02:40:21;21.26;53.46
76785;SHT30;66893;44.316;0.092;2023-05-10T02:42:48;21.23;53.46
76785;SHT30;66893;44.316;0.092;2023-05-10T02:45:19;21.23;53.47
76785;SHT30;66893;44.316;0.092;2023-05-10T02:47:45;21.23;53.45
76785;SHT30;66893;44.316;0.092;2023-05-10T02:50:11;21.20;53.44
76785;SHT30;66893;44.316;0.092;2023-05-10T02:52:40;21.18;53.47
76785;SHT30;66893;44.316;0.092;2023-05-10T02:55:09;21.18;53.46
76785;SHT30;66893;44.316;0.092;2023-05-10T02:57:40;21.18;53.52
76785;SHT30;66893;44.316;0.092;2023-05-10T03:00:07;21.16;53.52
76785;SHT30;66893;44.316;0.092;2023-05-10T03:02:33;21.13;53.55
76785;SHT30;66893;44.316;0.092;2023-05-10T03:04:59;21.09;53.57
76785;SHT30;66893;44.316;0.092;2023-05-10T03:07:24;21.13;53.59
76785;SHT30;66893;44.316;0.092;2023-05-10T03:09:50;21.09;53.58
76785;SHT30;66893;44.316;0.092;2023-05-10T03:12:40;21.08;53.57
76785;SHT30;66893;44.316;0.092;2023-05-10T03:15:19;21.05;53.61
76785;SHT30;66893;44.316;0.092;2023-05-10T03:18:07;21.05;53.60
76785;SHT30;66893;44.316;0.092;2023-05-10T03:20:46;21.03;53.58
76785;SHT30;66893;44.316;0.092;2023-05-10T03:25:44;21.00;53.60
76785;SHT30;66893;44.316;0.092;2023-05-10T03:28:12;20.99;53.60
76785;SHT30;66893;44.316;0.092;2023-05-10T03:30:39;20.99;53.63
76785;SHT30;66893;44.316;0.092;2023-05-10T03:33:06;20.95;53.66
76785;SHT30;66893;44.316;0.092;2023-05-10T03:35:31;20.94;53.66
76785;SHT30;66893;44.316;0.092;2023-05-10T03:37:57;20.96;53.69
76785;SHT30;66893;44.316;0.092;2023-05-10T03:40:23;20.94;53.66
76785;SHT30;66893;44.316;0.092;2023-05-10T03:42:49;20.92;53.66
76785;SHT30;66893;44.316;0.092;2023-05-10T03:45:14;20.91;53.65
76785;SHT30;66893;44.316;0.092;2023-05-10T03:47:40;20.88;53.71
76785;SHT30;66893;44.316;0.092;2023-05-10T03:50:06;20.87;53.68
76785;SHT30;66893;44.316;0.092;2023-05-10T03:52:32;20.87;53.74
76785;SHT30;66893;44.316;0.092;2023-05-10T03:54:57;20.87;53.72
76785;SHT30;66893;44.316;0.092;2023-05-10T03:57:23;20.85;53.76
76785;SHT30;66893;44.316;0.092;2023-05-10T03:59:48;20.84;53.70
76785;SHT30;66893;44.316;0.092;2023-05-10T04:02:14;20.82;53.71
76785;SHT30;66893;44.316;0.092;2023-05-10T04:04:39;20.78;53.77
76785;SHT30;66893;44.316;0.092;2023-05-10T04:07:05;20.79;53.74
76785;SHT30;66893;44.316;0.092;2023-05-10T04:09:30;20.78;53.77
76785;SHT30;66893;44.316;0.092;2023-05-10T04:11:56;20.78;53.73
76785;SHT30;66893;44.316;0.092;2023-05-10T04:14:23;20.75;53.72
76785;SHT30;66893;44.316;0.092;2023-05-10T04:16:49;20.72;53.73
76785;SHT30;66893;44.316;0.092;2023-05-10T04:19:14;20.72;53.73
76785;SHT30;66893;44.316;0.092;2023-05-10T04:21:40;20.72;53.70
76785;SHT30;66893;44.316;0.092;2023-05-10T04:24:05;20.71;53.68
76785;SHT30;66893;44.316;0.092;2023-05-10T04:26:31;20.68;53.71
76785;SHT30;66893;44.316;0.092;2023-05-10T04:28:56;20.67;53.75
76785;SHT30;66893;44.316;0.092;2023-05-10T04:31:21;20.67;53.70
76785;SHT30;66893;44.316;0.092;2023-05-10T04:33:47;20.64;53.70
76785;SHT30;66893;44.316;0.092;2023-05-10T04:36:13;20.63;53.66
76785;SHT30;66893;44.316;0.092;2023-05-10T04:38:38;20.61;53.70
76785;SHT30;66893;44.316;0.092;2023-05-10T04:41:07;20.61;53.63
76785;SHT30;66893;44.316;0.092;2023-05-10T04:43:33;20.58;53.68
76785;SHT30;66893;44.316;0.092;2023-05-10T04:45:59;20.60;53.63
76785;SHT30;66893;44.316;0.092;2023-05-10T04:48:25;20.58;53.66
76785;SHT30;66893;44.316;0.092;2023-05-10T04:50:50;20.57;53.64
76785;SHT30;66893;44.316;0.092;2023-05-10T04:53:16;20.55;53.64
76785;SHT30;66893;44.316;0.092;2023-05-10T04:55:41;20.53;53.60
76785;SHT30;66893;44.316;0.092;2023-05-10T04:58:07;20.54;53.60
76785;SHT30;66893;44.316;0.092;2023-05-10T05:00:33;20.51;53.60
76785;SHT30;66893;44.316;0.092;2023-05-10T05:02:58;20.48;53.62
76785;SHT30;66893;44.316;0.092;2023-05-10T05:05:24;20.50;53.57
76785;SHT30;66893;44.316;0.092;2023-05-10T05:07:50;20.45;53.58
76785;SHT30;66893;44.316;0.092;2023-05-10T05:10:15;20.47;53.55
76785;SHT30;66893;44.316;0.092;2023-05-10T05:12:41;20.45;53.58
76785;SHT30;66893;44.316;0.092;2023-05-10T05:15:07;20.45;53.56
76785;SHT30;66893;44.316;0.092;2023-05-10T05:17:34;20.43;53.55
76785;SHT30;66893;44.316;0.092;2023-05-10T05:19:59;20.47;53.51
76785;SHT30;66893;44.316;0.092;2023-05-10T05:22:25;20.45;53.49
76785;SHT30;66893;44.316;0.092;2023-05-10T05:24:56;20.43;53.50
76785;SHT30;66893;44.316;0.092;2023-05-10T05:27:22;20.43;53.48
76785;SHT30;66893;44.316;0.092;2023-05-10T05:29:50;20.41;53.50
76785;SHT30;66893;44.316;0.092;2023-05-10T05:32:16;20.40;53.50
76785;SHT30;66893;44.316;0.092;2023-05-10T05:34:44;20.39;53.46
76785;SHT30;66893;44.316;0.092;2023-05-10T05:37:20;20.40;53.48
76785;SHT30;66893;44.316;0.092;2023-05-10T05:39:47;20.39;53.49
76785;SHT30;66893;44.316;0.092;2023-05-10T05:42:12;20.37;53.44
76785;SHT30;66893;44.316;0.092;2023-05-10T05:44:38;20.37;53.45
76785;SHT30;66893;44.316;0.092;2023-05-10T05:47:05;20.36;53.46
76785;SHT30;66893;44.316;0.092;2023-05-10T05:49:31;20.37;53.47
76785;SHT30;66893;44.316;0.092;2023-05-10T05:52:03;20.36;53.51
76785;SHT30;66893;44.316;0.092;2023-05-10T05:54:29;20.36;53.47
76785;SHT30;66893;44.316;0.092;2023-05-10T05:56:58;20.34;53.50
76785;SHT30;66893;44.316;0.092;2023-05-10T05:59:24;20.39;53.49
76785;SHT30;66893;44.316;0.092;2023-05-10T06:01:49;20.39;53.46
76785;SHT30;66893;44.316;0.092;2023-05-10T06:04:16;20.39;53.50
76785;SHT30;66893;44.316;0.092;2023-05-10T06:06:41;20.36;53.48
76785;SHT30;66893;44.316;0.092;2023-05-10T06:09:08;20.36;53.50
76785;SHT30;66893;44.316;0.092;2023-05-10T06:11:34;20.39;53.54
76785;SHT30;66893;44.316;0.092;2023-05-10T06:13:59;20.40;53.52
76785;SHT30;66893;44.316;0.092;2023-05-10T06:16:25;20.40;53.50
76785;SHT30;66893;44.316;0.092;2023-05-10T06:18:51;20.33;53.23
76785;SHT30;66893;44.316;0.092;2023-05-10T06:21:16;20.17;53.23
76785;SHT30;66893;44.316;0.092;2023-05-10T06:23:42;19.99;53.81
76785;SHT30;66893;44.316;0.092;2023-05-10T06:26:07;19.95;54.02
76785;SHT30;66893;44.316;0.092;2023-05-10T06:28:33;19.98;54.11
76785;SHT30;66893;44.316;0.092;2023-05-10T06:30:59;20.02;54.15
76785;SHT30;66893;44.316;0.092;2023-05-10T06:33:24;20.04;54.11
76785;SHT30;66893;44.316;0.092;2023-05-10T06:35:50;20.09;54.16
76785;SHT30;66893;44.316;0.092;2023-05-10T06:38:15;20.15;54.27
76785;SHT30;66893;44.316;0.092;2023-05-10T06:40:42;20.16;54.35
76785;SHT30;66893;44.316;0.092;2023-05-10T06:43:08;20.19;54.21
76785;SHT30;66893;44.316;0.092;2023-05-10T06:45:34;20.22;54.26
76785;SHT30;66893;44.316;0.092;2023-05-10T06:47:59;20.26;54.20
76785;SHT30;66893;44.316;0.092;2023-05-10T06:50:25;20.26;54.27
76785;SHT30;66893;44.316;0.092;2023-05-10T06:52:50;20.30;54.27
76785;SHT30;66893;44.316;0.092;2023-05-10T06:55:16;20.30;54.31
76785;SHT30;66893;44.316;0.092;2023-05-10T06:57:42;20.30;54.35
76785;SHT30;66893;44.316;0.092;2023-05-10T07:00:08;20.33;54.31
76785;SHT30;66893;44.316;0.092;2023-05-10T07:02:35;20.34;54.33
76785;SHT30;66893;44.316;0.092;2023-05-10T07:05:00;20.33;54.31
76785;SHT30;66893;44.316;0.092;2023-05-10T07:07:26;20.34;54.33
76785;SHT30;66893;44.316;0.092;2023-05-10T07:09:51;20.37;54.35
76785;SHT30;66893;44.316;0.092;2023-05-10T07:12:17;20.37;54.34
76785;SHT30;66893;44.316;0.092;2023-05-10T07:14:43;20.40;54.43
76785;SHT30;66893;44.316;0.092;2023-05-10T07:17:08;20.44;54.34
76785;SHT30;66893;44.316;0.092;2023-05-10T07:19:34;20.45;54.37
76785;SHT30;66893;44.316;0.092;2023-05-10T07:21:59;20.44;54.35
76785;SHT30;66893;44.316;0.092;2023-05-10T07:24:25;20.47;54.34
76785;SHT30;66893;44.316;0.092;2023-05-10T07:26:50;20.48;54.34
76785;SHT30;66893;44.316;0.092;2023-05-10T07:29:16;20.54;54.31
76785;SHT30;66893;44.316;0.092;2023-05-10T07:31:41;20.53;54.30
76785;SHT30;66893;44.316;0.092;2023-05-10T07:34:08;20.57;54.35
76785;SHT30;66893;44.316;0.092;2023-05-10T07:36:34;20.58;54.40
76785;SHT30;66893;44.316;0.092;2023-05-10T07:38:59;20.58;54.36
76785;SHT30;66893;44.316;0.092;2023-05-10T07:41:25;20.63;54.06
76785;SHT30;66893;44.316;0.092;2023-05-10T07:43:51;20.58;54.04
76785;SHT30;66893;44.316;0.092;2023-05-10T07:46:16;20.57;53.96
76785;SHT30;66893;44.316;0.092;2023-05-10T07:48:42;20.54;53.99
76785;SHT30;66893;44.316;0.092;2023-05-10T07:51:07;20.51;54.04
76785;SHT30;66893;44.316;0.092;2023-05-10T07:53:34;20.50;54.20
76785;SHT30;66893;44.316;0.092;2023-05-10T07:56:20;20.50;54.21
76785;SHT30;66893;44.316;0.092;2023-05-10T07:58:46;20.51;54.30
76785;SHT30;66893;44.316;0.092;2023-05-10T08:01:11;20.58;54.29
76785;SHT30;66893;44.316;0.092;2023-05-10T08:03:37;20.61;54.32
76785;SHT30;66893;44.316;0.092;2023-05-10T08:06:02;20.63;54.22
76785;SHT30;66893;44.316;0.092;2023-05-10T08:08:28;20.64;54.24
76785;SHT30;66893;44.316;0.092;2023-05-10T08:10:53;20.67;54.17
76785;SHT30;66893;44.316;0.092;2023-05-10T08:13:20;20.71;54.20
76785;SHT30;66893;44.316;0.092;2023-05-10T08:15:46;20.72;54.25
76785;SHT30;66893;44.316;0.092;2023-05-10T08:18:11;20.74;54.25
76785;SHT30;66893;44.316;0.092;2023-05-10T08:20:37;20.75;54.32
76785;SHT30;66893;44.316;0.092;2023-05-10T08:23:02;20.82;54.32
76785;SHT30;66893;44.316;0.092;2023-05-10T08:25:28;20.82;53.83
76785;SHT30;66893;44.316;0.092;2023-05-10T08:27:53;20.71;53.72
76785;SHT30;66893;44.316;0.092;2023-05-10T08:30:19;20.60;53.63
76785;SHT30;66893;44.316;0.092;2023-05-10T08:32:44;20.48;53.63
76785;SHT30;66893;44.316;0.092;2023-05-10T08:35:10;20.40;53.64
76785;SHT30;66893;44.316;0.092;2023-05-10T08:37:35;20.33;53.83
76785;SHT30;66893;44.316;0.092;2023-05-10T08:40:00;20.26;53.71
76785;SHT30;66893;44.316;0.092;2023-05-10T08:42:28;20.22;53.47
76785;SHT30;66893;44.316;0.092;2023-05-10T08:44:57;20.12;53.35
76785;SHT30;66893;44.316;0.092;2023-05-10T08:47:23;20.06;53.41
76785;SHT30;66893;44.316;0.092;2023-05-10T08:49:50;19.99;53.30
76785;SHT30;66893;44.316;0.092;2023-05-10T08:52:17;19.98;53.45
76785;SHT30;66893;44.316;0.092;2023-05-10T08:54:43;19.93;53.42
76785;SHT30;66893;44.316;0.092;2023-05-10T08:57:10;19.89;53.45
76785;SHT30;66893;44.316;0.092;2023-05-10T08:59:35;19.86;53.53
76785;SHT30;66893;44.316;0.092;2023-05-10T09:02:04;19.83;53.59
76785;SHT30;66893;44.316;0.092;2023-05-10T09:04:30;19.83;53.57
76785;SHT30;66893;44.316;0.092;2023-05-10T09:06:56;19.82;53.20
76785;SHT30;66893;44.316;0.092;2023-05-10T09:09:23;19.78;53.12
76785;SHT30;66893;44.316;0.092;2023-05-10T09:11:51;19.75;53.29
76785;SHT30;66893;44.316;0.092;2023-05-10T09:14:17;19.75;53.35
76785;SHT30;66893;44.316;0.092;2023-05-10T09:16:43;19.81;53.29
76785;SHT30;66893;44.316;0.092;2023-05-10T09:19:08;19.83;52.82
76785;SHT30;66893;44.316;0.092;2023-05-10T09:21:35;19.85;52.79
76785;SHT30;66893;44.316;0.092;2023-05-10T09:24:07;19.93;52.70
76785;SHT30;66893;44.316;0.092;2023-05-10T09:26:34;20.02;52.60
76785;SHT30;66893;44.316;0.092;2023-05-10T09:29:01;20.10;52.25
76785;SHT30;66893;44.316;0.092;2023-05-10T09:31:47;20.20;52.15
76785;SHT30;66893;44.316;0.092;2023-05-10T09:34:19;20.30;51.99
76785;SHT30;66893;44.316;0.092;2023-05-10T09:37:00;20.40;51.72
76785;SHT30;66893;44.316;0.092;2023-05-10T09:39:38;20.41;51.93
76785;SHT30;66893;44.316;0.092;2023-05-10T09:42:08;20.47;51.88
76785;SHT30;66893;44.316;0.092;2023-05-10T09:44:34;20.48;51.90
76785;SHT30;66893;44.316;0.092;2023-05-10T09:47:01;20.53;51.78
76785;SHT30;66893;44.316;0.092;2023-05-10T09:49:27;20.54;51.74
76785;SHT30;66893;44.316;0.092;2023-05-10T09:52:04;20.57;51.66
76785;SHT30;66893;44.316;0.092;2023-05-10T09:54:30;20.58;51.42
76785;SHT30;66893;44.316;0.092;2023-05-10T09:56:56;20.57;51.35
76785;SHT30;66893;44.316;0.092;2023-05-10T09:59:21;20.65;51.03
76785;SHT30;66893;44.316;0.092;2023-05-10T10:01:50;20.61;50.55
76785;SHT30;66893;44.316;0.092;2023-05-10T10:04:16;20.65;50.82
76785;SHT30;66893;44.316;0.092;2023-05-10T10:06:42;20.68;50.62
76785;SHT30;66893;44.316;0.092;2023-05-10T10:09:09;20.70;50.62
76785;SHT30;66893;44.316;0.092;2023-05-10T10:11:37;20.78;50.58
76785;SHT30;66893;44.316;0.092;2023-05-10T10:14:04;20.85;50.38
76785;SHT30;66893;44.316;0.092;2023-05-10T10:16:31;20.89;50.28
76785;SHT30;66893;44.316;0.092;2023-05-10T10:18:57;20.94;50.02
76785;SHT30;66893;44.316;0.092;2023-05-10T10:21:23;21.00;49.96
76785;SHT30;66893;44.316;0.092;2023-05-10T10:23:49;21.06;50.06
76785;SHT30;66893;44.316;0.092;2023-05-10T10:26:17;21.12;50.01
76785;SHT30;66893;44.316;0.092;2023-05-10T10:29:04;21.20;49.98
76785;SHT30;66893;44.316;0.092;2023-05-10T10:31:41;21.29;50.11
76785;SHT30;66893;44.316;0.092;2023-05-10T10:34:09;21.37;50.03
76785;SHT30;66893;44.316;0.092;2023-05-10T10:36:46;21.43;49.46
76785;SHT30;66893;44.316;0.092;2023-05-10T10:39:13;21.42;48.55
76785;SHT30;66893;44.316;0.092;2023-05-10T10:41:41;21.50;49.00
76785;SHT30;66893;44.316;0.092;2023-05-10T10:55:03;21.78;48.84
76785;SHT30;66893;44.316;0.092;2023-05-10T10:57:42;21.80;48.93
76785;SHT30;66893;44.316;0.092;2023-05-10T11:02:48;21.82;48.73
76785;SHT30;66893;44.316;0.092;2023-05-10T11:07:59;21.91;48.81
76785;SHT30;66893;44.316;0.092;2023-05-10T11:10:27;21.98;48.84
76785;SHT30;66893;44.316;0.092;2023-05-10T11:13:06;22.04;48.85
76785;SHT30;66893;44.316;0.092;2023-05-10T11:15:36;22.08;48.88
76785;SHT30;66893;44.316;0.092;2023-05-10T11:18:23;22.09;48.80
76785;SHT30;66893;44.316;0.092;2023-05-10T11:20:57;22.10;48.83
76785;SHT30;66893;44.316;0.092;2023-05-10T11:23:23;22.13;48.87
76785;SHT30;66893;44.316;0.092;2023-05-10T11:25:49;22.13;48.99
76785;SHT30;66893;44.316;0.092;2023-05-10T11:28:17;22.15;49.11
76785;SHT30;66893;44.316;0.092;2023-05-10T11:30:44;22.17;49.22
76785;SHT30;66893;44.316;0.092;2023-05-10T11:33:15;22.20;49.36
76785;SHT30;66893;44.316;0.092;2023-05-10T11:35:41;22.23;49.46
76785;SHT30;66893;44.316;0.092;2023-05-10T11:38:10;22.25;49.61
76785;SHT30;66893;44.316;0.092;2023-05-10T11:40:37;22.28;49.65
76785;SHT30;66893;44.316;0.092;2023-05-10T11:43:03;22.29;49.65
76785;SHT30;66893;44.316;0.092;2023-05-10T11:45:32;22.32;49.64
76785;SHT30;66893;44.316;0.092;2023-05-10T11:47:58;22.36;49.66
76785;SHT30;66893;44.316;0.092;2023-05-10T11:50:24;22.37;49.71
76785;SHT30;66893;44.316;0.092;2023-05-10T11:52:52;22.42;49.68
76785;SHT30;66893;44.316;0.092;2023-05-10T11:55:17;22.46;49.74
76785;SHT30;66893;44.316;0.092;2023-05-10T11:57:43;22.52;49.71
76785;SHT30;66893;44.316;0.092;2023-05-10T12:00:11;22.56;49.78
76785;SHT30;66893;44.316;0.092;2023-05-10T12:02:37;22.60;49.78
76785;SHT30;66893;44.316;0.092;2023-05-10T12:05:04;22.60;49.54
76785;SHT30;66893;44.316;0.092;2023-05-10T12:07:30;22.59;49.68
76785;SHT30;66893;44.316;0.092;2023-05-10T12:10:08;22.63;49.76
76785;SHT30;66893;44.316;0.092;2023-05-10T12:12:38;22.67;49.75
76785;SHT30;66893;44.316;0.092;2023-05-10T12:15:05;22.71;49.72
76785;SHT30;66893;44.316;0.092;2023-05-10T12:17:31;22.77;49.67
76785;SHT30;66893;44.316;0.092;2023-05-10T12:20:13;22.80;49.61
76785;SHT30;66893;44.316;0.092;2023-05-10T12:22:40;22.80;49.61
76785;SHT30;66893;44.316;0.092;2023-05-10T12:25:07;22.77;49.83
76785;SHT30;66893;44.316;0.092;2023-05-10T12:27:33;22.68;50.02
76785;SHT30;66893;44.316;0.092;2023-05-10T12:29:59;22.65;50.29
76785;SHT30;66893;44.316;0.092;2023-05-10T12:32:43;22.65;50.48
76785;SHT30;66893;44.316;0.092;2023-05-10T12:35:09;22.67;50.52
76785;SHT30;66893;44.316;0.092;2023-05-10T12:37:35;22.70;50.59
76785;SHT30;66893;44.316;0.092;2023-05-10T12:40:06;22.74;50.63
76785;SHT30;66893;44.316;0.092;2023-05-10T12:42:32;22.80;50.66
76785;SHT30;66893;44.316;0.092;2023-05-10T12:44:57;22.84;50.70
76785;SHT30;66893;44.316;0.092;2023-05-10T12:47:23;22.90;50.72
76785;SHT30;66893;44.316;0.092;2023-05-10T12:49:48;22.98;50.66
76785;SHT30;66893;44.316;0.092;2023-05-10T12:52:14;23.05;50.59
76785;SHT30;66893;44.316;0.092;2023-05-10T12:54:39;23.14;50.56
76785;SHT30;66893;44.316;0.092;2023-05-10T12:57:04;23.22;50.45
76785;SHT30;66893;44.316;0.092;2023-05-10T12:59:30;23.27;50.42
76785;SHT30;66893;44.316;0.092;2023-05-10T13:01:57;23.33;50.34
76785;SHT30;66893;44.316;0.092;2023-05-10T13:04:23;23.46;50.35
76785;SHT30;66893;44.316;0.092;2023-05-10T13:06:48;23.52;50.23
76785;SHT30;66893;44.316;0.092;2023-05-10T13:09:14;23.59;50.24
76785;SHT30;66893;44.316;0.092;2023-05-10T13:11:40;23.57;50.16
76785;SHT30;66893;44.316;0.092;2023-05-10T13:14:05;23.60;50.21
76785;SHT30;66893;44.316;0.092;2023-05-10T13:16:31;23.60;50.16
76785;SHT30;66893;44.316;0.092;2023-05-10T13:18:57;23.63;50.15
76785;SHT30;66893;44.316;0.092;2023-05-10T13:21:23;23.66;50.16
76785;SHT30;66893;44.316;0.092;2023-05-10T13:23:50;23.69;50.10
76785;SHT30;66893;44.316;0.092;2023-05-10T13:26:16;23.71;50.06
76785;SHT30;66893;44.316;0.092;2023-05-10T13:28:41;23.77;50.00
76785;SHT30;66893;44.316;0.092;2023-05-10T13:31:07;23.90;49.98
76785;SHT30;66893;44.316;0.092;2023-05-10T13:33:33;24.04;49.93
76785;SHT30;66893;44.316;0.092;2023-05-10T13:35:58;24.15;49.79
76785;SHT30;66893;44.316;0.092;2023-05-10T13:38:24;24.24;49.77
76785;SHT30;66893;44.316;0.092;2023-05-10T13:40:49;24.36;49.55
76785;SHT30;66893;44.316;0.092;2023-05-10T13:43:18;24.43;49.52
76785;SHT30;66893;44.316;0.092;2023-05-10T13:45:43;24.55;49.39
76785;SHT30;66893;44.316;0.092;2023-05-10T13:48:09;24.63;49.29
76785;SHT30;66893;44.316;0.092;2023-05-10T13:50:34;24.76;49.19
76785;SHT30;66893;44.316;0.092;2023-05-10T13:53:00;24.86;49.00
76785;SHT30;66893;44.316;0.092;2023-05-10T13:55:25;24.95;48.97
76785;SHT30;66893;44.316;0.092;2023-05-10T13:57:51;25.06;48.52
76785;SHT30;66893;44.316;0.092;2023-05-10T14:00:17;25.07;48.63
76785;SHT30;66893;44.316;0.092;2023-05-10T14:02:42;25.10;48.35
76785;SHT30;66893;44.316;0.092;2023-05-10T14:05:08;25.06;47.75
76785;SHT30;66893;44.316;0.092;2023-05-10T14:07:34;25.03;47.65
76785;SHT30;66893;44.316;0.092;2023-05-10T14:10:00;25.06;47.70
76785;SHT30;66893;44.316;0.092;2023-05-10T14:12:25;25.14;47.76
76785;SHT30;66893;44.316;0.092;2023-05-10T14:14:50;25.25;47.67
76785;SHT30;66893;44.316;0.092;2023-05-10T14:17:17;25.35;47.66
76785;SHT30;66893;44.316;0.092;2023-05-10T14:19:43;25.42;47.62
76785;SHT30;66893;44.316;0.092;2023-05-10T14:22:08;25.50;47.41
76785;SHT30;66893;44.316;0.092;2023-05-10T14:24:33;25.63;46.83
76785;SHT30;66893;44.316;0.092;2023-05-10T14:26:59;25.73;46.74
76785;SHT30;66893;44.316;0.092;2023-05-10T14:29:25;25.79;46.02
76785;SHT30;66893;44.316;0.092;2023-05-10T14:31:51;25.77;45.57
76785;SHT30;66893;44.316;0.092;2023-05-10T14:34:16;25.76;45.73
76785;SHT30;66893;44.316;0.092;2023-05-10T14:36:42;25.73;45.27
76785;SHT30;66893;44.316;0.092;2023-05-10T14:39:07;25.72;45.29
76785;SHT30;66893;44.316;0.092;2023-05-10T14:41:34;25.70;44.82
76785;SHT30;66893;44.316;0.092;2023-05-10T14:44:00;25.72;44.82
76785;SHT30;66893;44.316;0.092;2023-05-10T14:46:28;25.74;44.63
76785;SHT30;66893;44.316;0.092;2023-05-10T14:48:54;25.80;44.61
76785;SHT30;66893;44.316;0.092;2023-05-10T14:51:20;25.87;44.53
76785;SHT30;66893;44.316;0.092;2023-05-10T14:53:48;25.96;44.34
76785;SHT30;66893;44.316;0.092;2023-05-10T14:56:14;26.02;44.35
76785;SHT30;66893;44.316;0.092;2023-05-10T14:58:39;26.14;43.88
76785;SHT30;66893;44.316;0.092;2023-05-10T15:01:05;26.28;43.64
76785;SHT30;66893;44.316;0.092;2023-05-10T15:03:30;26.39;43.42
76785;SHT30;66893;44.316;0.092;2023-05-10T15:05:56;26.55;43.24
76785;SHT30;66893;44.316;0.092;2023-05-10T15:08:23;26.66;42.98
76785;SHT30;66893;44.316;0.092;2023-05-10T15:10:50;26.73;43.02
76785;SHT30;66893;44.316;0.092;2023-05-10T15:13:15;26.79;42.61
76785;SHT30;66893;44.316;0.092;2023-05-10T15:15:41;26.89;42.46
76785;SHT30;66893;44.316;0.092;2023-05-10T15:18:06;27.03;42.25
76785;SHT30;66893;44.316;0.092;2023-05-10T15:20:32;27.10;41.90
76785;SHT30;66893;44.316;0.092;2023-05-10T15:22:57;27.14;42.06
76785;SHT30;66893;44.316;0.092;2023-05-10T15:25:23;27.17;41.46
76785;SHT30;66893;44.316;0.092;2023-05-10T15:27:49;27.18;41.31
76785;SHT30;66893;44.316;0.092;2023-05-10T15:30:14;27.15;41.04
76785;SHT30;66893;44.316;0.092;2023-05-10T15:32:39;27.10;41.03
76785;SHT30;66893;44.316;0.092;2023-05-10T15:35:07;27.07;40.53
76785;SHT30;66893;44.316;0.092;2023-05-10T15:37:33;27.07;40.47
76785;SHT30;66893;44.316;0.092;2023-05-10T15:39:58;27.11;40.59
76785;SHT30;66893;44.316;0.092;2023-05-10T15:42:31;27.12;40.14
76785;SHT30;66893;44.316;0.092;2023-05-10T15:44:57;27.18;40.27
76785;SHT30;66893;44.316;0.092;2023-05-10T15:47:23;27.35;40.22
76785;SHT30;66893;44.316;0.092;2023-05-10T15:49:49;27.45;40.03
76785;SHT30;66893;44.316;0.092;2023-05-10T15:52:14;27.56;40.10
76785;SHT30;66893;44.316;0.092;2023-05-10T15:54:40;27.73;39.79
76785;SHT30;66893;44.316;0.092;2023-05-10T15:57:06;27.90;39.49
76785;SHT30;66893;44.316;0.092;2023-05-10T15:59:32;28.14;39.39
76785;SHT30;66893;44.316;0.092;2023-05-10T16:01:58;28.49;39.02
76785;SHT30;66893;44.316;0.092;2023-05-10T16:04:23;28.96;39.03
76785;SHT30;66893;44.316;0.092;2023-05-10T16:06:49;29.06;38.72
76785;SHT30;66893;44.316;0.092;2023-05-10T16:09:14;28.98;38.54